Apache, Nevada
Current Conditions -  °F | °C
As of 1:56 PM on Friday 31 Oct 2014 (Local Time) from KWMC Reporting Station
Clear Clear  
Wind Chill: 67°   Ceiling: Unl
Heat Index: 67°   Visibility: 10mi
Dew Point: 23°   Wind: 8mph
Humidity: 19%   Direction: 290°WNW
Pressure: 29.77"   Gusts: NA
Location:  40.601°N, 117.984°W
Report Text: KWMC 312056Z AUTO 29007KT 10SM CLR 19/M05 A2977 RMK AO2 SLP060 T01941050 58027
Loading
Personal Weather Stations






























Interactive Weather Map
Tropical Storm Tracking
New forecast layout! Learn more

10-Day Weather Forecast

Advertisements
Track Severe Weather on mobile